sensor_id;sensor_type;location;lat;lon;timestamp;pressure;altitude;pressure_sealevel;temperature;humidity
60583;BME280;46415;47.536;19.066;2023-04-23T00:03:02;-18468.09;;;8.78;100.00
60583;BME280;46415;47.536;19.066;2023-04-23T00:06:07;-18466.72;;;8.73;100.00
60583;BME280;46415;47.536;19.066;2023-04-23T00:09:13;-18465.34;;;8.68;100.00
60583;BME280;46415;47.536;19.066;2023-04-23T00:12:17;-18466.28;;;8.71;100.00
60583;BME280;46415;47.536;19.066;2023-04-23T00:15:20;-18466.44;;;8.72;100.00
60583;BME280;46415;47.536;19.066;2023-04-23T00:18:23;-18465.47;;;8.68;100.00
60583;BME280;46415;47.536;19.066;2023-04-23T00:21:26;-18465.06;;;8.67;100.00
60583;BME280;46415;47.536;19.066;2023-04-23T00:24:29;-18463.41;;;8.60;100.00
60583;BME280;46415;47.536;19.066;2023-04-23T00:27:33;-18461.22;;;8.52;100.00
60583;BME280;46415;47.536;19.066;2023-04-23T00:30:36;-18459.56;;;8.46;100.00
60583;BME280;46415;47.536;19.066;2023-04-23T00:33:39;-18457.78;;;8.40;100.00
60583;BME280;46415;47.536;19.066;2023-04-23T00:36:42;-18458.47;;;8.42;100.00
60583;BME280;46415;47.536;19.066;2023-04-23T00:39:44;-18456.16;;;8.34;100.00
60583;BME280;46415;47.536;19.066;2023-04-23T00:42:48;-18454.91;;;8.29;100.00
60583;BME280;46415;47.536;19.066;2023-04-23T00:45:53;-18454.50;;;8.28;100.00
60583;BME280;46415;47.536;19.066;2023-04-23T00:48:57;-18453.53;;;8.24;100.00
60583;BME280;46415;47.536;19.066;2023-04-23T00:51:59;-18452.44;;;8.20;100.00
60583;BME280;46415;47.536;19.066;2023-04-23T00:55:03;-18451.63;;;8.17;100.00
60583;BME280;46415;47.536;19.066;2023-04-23T00:58:06;-18450.78;;;8.14;100.00
60583;BME280;46415;47.536;19.066;2023-04-23T01:01:10;-18450.38;;;8.12;100.00
60583;BME280;46415;47.536;19.066;2023-04-23T01:04:15;-18448.31;;;8.05;100.00
60583;BME280;46415;47.536;19.066;2023-04-23T01:07:20;-18448.06;;;8.04;100.00
60583;BME280;46415;47.536;19.066;2023-04-23T01:10:23;-18447.63;;;8.02;100.00
60583;BME280;46415;47.536;19.066;2023-04-23T01:13:26;-18448.31;;;8.05;100.00
60583;BME280;46415;47.536;19.066;2023-04-23T01:16:31;-18447.91;;;8.03;100.00
60583;BME280;46415;47.536;19.066;2023-04-23T01:19:34;-18447.09;;;8.00;100.00
60583;BME280;46415;47.536;19.066;2023-04-23T01:22:38;-18445.84;;;7.96;100.00
60583;BME280;46415;47.536;19.066;2023-04-23T01:25:41;-18445.03;;;7.93;100.00
60583;BME280;46415;47.536;19.066;2023-04-23T01:28:44;-18446.00;;;7.96;100.00
60583;BME280;46415;47.536;19.066;2023-04-23T01:31:49;-18444.22;;;7.90;100.00
60583;BME280;46415;47.536;19.066;2023-04-23T01:34:53;-18444.06;;;7.89;100.00
60583;BME280;46415;47.536;19.066;2023-04-23T01:37:58;-18443.53;;;7.87;100.00
60583;BME280;46415;47.536;19.066;2023-04-23T01:41:04;-18441.47;;;7.79;100.00
60583;BME280;46415;47.536;19.066;2023-04-23T01:44:07;-18440.78;;;7.77;100.00
60583;BME280;46415;47.536;19.066;2023-04-23T01:47:10;-18440.91;;;7.77;100.00
60583;BME280;46415;47.536;19.066;2023-04-23T01:50:13;-18438.59;;;7.69;100.00
60583;BME280;46415;47.536;19.066;2023-04-23T01:53:17;-18438.19;;;7.67;100.00
60583;BME280;46415;47.536;19.066;2023-04-23T01:56:23;-18436.53;;;7.61;100.00
60583;BME280;46415;47.536;19.066;2023-04-23T01:59:27;-18435.97;;;7.59;100.00
60583;BME280;46415;47.536;19.066;2023-04-23T02:02:30;-18435.28;;;7.57;100.00
60583;BME280;46415;47.536;19.066;2023-04-23T02:05:34;-18435.16;;;7.56;100.00
60583;BME280;46415;47.536;19.066;2023-04-23T02:08:38;-18435.16;;;7.56;100.00
60583;BME280;46415;47.536;19.066;2023-04-23T02:11:41;-18433.22;;;7.49;100.00
60583;BME280;46415;47.536;19.066;2023-04-23T02:14:44;-18432.41;;;7.46;100.00
60583;BME280;46415;47.536;19.066;2023-04-23T02:17:47;-18431.16;;;7.42;100.00
60583;BME280;46415;47.536;19.066;2023-04-23T02:20:53;-18430.75;;;7.40;100.00
60583;BME280;46415;47.536;19.066;2023-04-23T02:23:55;-18429.38;;;7.35;100.00
60583;BME280;46415;47.536;19.066;2023-04-23T02:26:59;-18427.88;;;7.29;100.00
60583;BME280;46415;47.536;19.066;2023-04-23T02:30:02;-18426.37;;;7.24;100.00
60583;BME280;46415;47.536;19.066;2023-04-23T02:33:06;-18425.81;;;7.22;100.00
60583;BME280;46415;47.536;19.066;2023-04-23T02:36:09;-18424.72;;;7.18;100.00
60583;BME280;46415;47.536;19.066;2023-04-23T02:39:15;-18423.06;;;7.12;100.00
60583;BME280;46415;47.536;19.066;2023-04-23T02:42:17;-18422.53;;;7.10;100.00
60583;BME280;46415;47.536;19.066;2023-04-23T02:45:20;-18420.06;;;7.01;100.00
60583;BME280;46415;47.536;19.066;2023-04-23T02:48:24;-18420.47;;;7.02;100.00
60583;BME280;46415;47.536;19.066;2023-04-23T02:51:29;-18421.00;;;7.04;100.00
60583;BME280;46415;47.536;19.066;2023-04-23T02:54:32;-18419.78;;;7.00;100.00
60583;BME280;46415;47.536;19.066;2023-04-23T02:57:35;-18417.59;;;6.91;100.00
60583;BME280;46415;47.536;19.066;2023-04-23T03:00:39;-18418.69;;;6.95;100.00
60583;BME280;46415;47.536;19.066;2023-04-23T03:03:42;-18417.31;;;6.90;100.00
60583;BME280;46415;47.536;19.066;2023-04-23T03:06:45;-18415.94;;;6.85;100.00
60583;BME280;46415;47.536;19.066;2023-04-23T03:09:49;-18413.88;;;6.78;100.00
60583;BME280;46415;47.536;19.066;2023-04-23T03:12:52;-18413.31;;;6.76;100.00
60583;BME280;46415;47.536;19.066;2023-04-23T03:15:56;-18413.31;;;6.76;100.00
60583;BME280;46415;47.536;19.066;2023-04-23T03:19:00;-18412.22;;;6.72;100.00
60583;BME280;46415;47.536;19.066;2023-04-23T03:22:03;-18413.75;;;6.77;100.00
60583;BME280;46415;47.536;19.066;2023-04-23T03:25:07;-18414.84;;;6.81;100.00
60583;BME280;46415;47.536;19.066;2023-04-23T03:28:10;-18416.06;;;6.86;100.00
60583;BME280;46415;47.536;19.066;2023-04-23T03:31:13;-18417.72;;;6.92;100.00
60583;BME280;46415;47.536;19.066;2023-04-23T03:34:16;-18416.34;;;6.87;100.00
60583;BME280;46415;47.536;19.066;2023-04-23T03:37:19;-18413.88;;;6.78;100.00
60583;BME280;46415;47.536;19.066;2023-04-23T03:40:22;-18413.06;;;6.75;100.00
60583;BME280;46415;47.536;19.066;2023-04-23T03:43:25;-18411.81;;;6.70;100.00
60583;BME280;46415;47.536;19.066;2023-04-23T03:46:32;-18411.53;;;6.69;100.00
60583;BME280;46415;47.536;19.066;2023-04-23T03:49:35;-18411.81;;;6.70;100.00
60583;BME280;46415;47.536;19.066;2023-04-23T03:52:56;-18411.81;;;6.70;100.00
60583;BME280;46415;47.536;19.066;2023-04-23T03:56:03;-18411.12;;;6.68;100.00
60583;BME280;46415;47.536;19.066;2023-04-23T03:59:07;-18411.00;;;6.67;100.00
60583;BME280;46415;47.536;19.066;2023-04-23T04:02:11;-18411.25;;;6.68;100.00
60583;BME280;46415;47.536;19.066;2023-04-23T04:05:14;-18410.16;;;6.64;100.00
60583;BME280;46415;47.536;19.066;2023-04-23T04:08:17;-18410.44;;;6.65;100.00
60583;BME280;46415;47.536;19.066;2023-04-23T04:11:20;-18412.22;;;6.72;100.00
60583;BME280;46415;47.536;19.066;2023-04-23T04:14:23;-18413.31;;;6.76;100.00
60583;BME280;46415;47.536;19.066;2023-04-23T04:17:26;-18415.25;;;6.83;100.00
60583;BME280;46415;47.536;19.066;2023-04-23T04:20:28;-18417.31;;;6.90;100.00
60583;BME280;46415;47.536;19.066;2023-04-23T04:23:31;-18420.19;;;7.01;100.00
60583;BME280;46415;47.536;19.066;2023-04-23T04:26:36;-18421.44;;;7.06;100.00
60583;BME280;46415;47.536;19.066;2023-04-23T04:29:39;-18424.44;;;7.17;100.00
60583;BME280;46415;47.536;19.066;2023-04-23T04:32:44;-18426.78;;;7.25;100.00
60583;BME280;46415;47.536;19.066;2023-04-23T04:35:48;-18428.28;;;7.31;100.00
60583;BME280;46415;47.536;19.066;2023-04-23T04:38:50;-18430.47;;;7.39;100.00
60583;BME280;46415;47.536;19.066;2023-04-23T04:41:55;-18430.63;;;7.39;100.00
60583;BME280;46415;47.536;19.066;2023-04-23T04:44:59;-18433.78;;;7.51;100.00
60583;BME280;46415;47.536;19.066;2023-04-23T04:48:02;-18437.06;;;7.63;100.00
60583;BME280;46415;47.536;19.066;2023-04-23T04:51:05;-18439.13;;;7.71;100.00
60583;BME280;46415;47.536;19.066;2023-04-23T04:54:08;-18442.69;;;7.84;100.00
60583;BME280;46415;47.536;19.066;2023-04-23T04:57:11;-18446.41;;;7.98;100.00
60583;BME280;46415;47.536;19.066;2023-04-23T05:00:22;-18452.03;;;8.18;100.00
60583;BME280;46415;47.536;19.066;2023-04-23T05:03:25;-18457.94;;;8.40;100.00
60583;BME280;46415;47.536;19.066;2023-04-23T05:06:29;-18463.41;;;8.60;100.00
60583;BME280;46415;47.536;19.066;2023-04-23T05:09:32;-18469.44;;;8.83;100.00
60583;BME280;46415;47.536;19.066;2023-04-23T05:12:35;-18472.47;;;8.94;100.00
60583;BME280;46415;47.536;19.066;2023-04-23T05:15:38;-18477.00;;;9.11;100.00
60583;BME280;46415;47.536;19.066;2023-04-23T05:18:41;-18482.19;;;9.30;100.00
60583;BME280;46415;47.536;19.066;2023-04-23T05:21:47;-18485.22;;;9.41;100.00
60583;BME280;46415;47.536;19.066;2023-04-23T05:24:50;-18488.91;;;9.55;100.00
60583;BME280;46415;47.536;19.066;2023-04-23T05:27:54;-18493.72;;;9.72;100.00
60583;BME280;46415;47.536;19.066;2023-04-23T05:30:57;-18500.97;;;9.99;100.00
60583;BME280;46415;47.536;19.066;2023-04-23T05:34:00;-18507.41;;;10.23;100.00
60583;BME280;46415;47.536;19.066;2023-04-23T05:37:03;-18511.25;;;10.37;100.00
60583;BME280;46415;47.536;19.066;2023-04-23T05:40:06;-18513.84;;;10.47;98.13
60583;BME280;46415;47.536;19.066;2023-04-23T05:43:11;-18517.13;;;10.59;96.22
60583;BME280;46415;47.536;19.066;2023-04-23T05:46:13;-18520.97;;;10.73;93.05
60583;BME280;46415;47.536;19.066;2023-04-23T05:49:16;-18524.94;;;10.88;90.69
60583;BME280;46415;47.536;19.066;2023-04-23T05:52:19;-18530.56;;;11.09;91.26
60583;BME280;46415;47.536;19.066;2023-04-23T05:55:22;-18535.47;;;11.27;91.23
60583;BME280;46415;47.536;19.066;2023-04-23T05:58:25;-18539.84;;;11.43;91.17
60583;BME280;46415;47.536;19.066;2023-04-23T06:01:28;-18544.50;;;11.60;89.67
60583;BME280;46415;47.536;19.066;2023-04-23T06:04:31;-18546.97;;;11.69;87.92
60583;BME280;46415;47.536;19.066;2023-04-23T06:07:34;-18552.72;;;11.91;86.62
60583;BME280;46415;47.536;19.066;2023-04-23T06:10:37;-18559.00;;;12.14;84.48
60583;BME280;46415;47.536;19.066;2023-04-23T06:13:40;-18563.66;;;12.31;82.55
60583;BME280;46415;47.536;19.066;2023-04-23T06:16:45;-18568.31;;;12.48;80.36
60583;BME280;46415;47.536;19.066;2023-04-23T06:19:48;-18572.97;;;12.65;77.06
60583;BME280;46415;47.536;19.066;2023-04-23T06:22:51;-18576.38;;;12.78;75.16
60583;BME280;46415;47.536;19.066;2023-04-23T06:25:53;-18578.84;;;12.87;73.87
60583;BME280;46415;47.536;19.066;2023-04-23T06:28:57;-18586.75;;;13.17;74.54
60583;BME280;46415;47.536;19.066;2023-04-23T06:32:01;-18591.28;;;13.33;72.85
60583;BME280;46415;47.536;19.066;2023-04-23T06:35:05;-18594.56;;;13.45;72.07
60583;BME280;46415;47.536;19.066;2023-04-23T06:38:09;-18600.84;;;13.69;71.78
60583;BME280;46415;47.536;19.066;2023-04-23T06:41:12;-18604.38;;;13.82;71.02
60583;BME280;46415;47.536;19.066;2023-04-23T06:44:15;-18608.19;;;13.96;70.49
60583;BME280;46415;47.536;19.066;2023-04-23T06:47:20;-18612.03;;;14.10;68.94
60583;BME280;46415;47.536;19.066;2023-04-23T06:50:23;-18615.84;;;14.24;69.11
60583;BME280;46415;47.536;19.066;2023-04-23T06:53:25;-18619.81;;;14.39;68.64
60583;BME280;46415;47.536;19.066;2023-04-23T06:56:28;-18623.63;;;14.53;69.10
60583;BME280;46415;47.536;19.066;2023-04-23T06:59:31;-18629.91;;;14.77;65.97
60583;BME280;46415;47.536;19.066;2023-04-23T07:02:34;-18631.41;;;14.82;64.80
60583;BME280;46415;47.536;19.066;2023-04-23T07:05:38;-18636.31;;;15.00;66.48
60583;BME280;46415;47.536;19.066;2023-04-23T07:08:42;-18637.13;;;15.03;63.76
60583;BME280;46415;47.536;19.066;2023-04-23T07:11:45;-18637.53;;;15.05;63.06
60583;BME280;46415;47.536;19.066;2023-04-23T07:14:47;-18639.31;;;15.11;63.30
60583;BME280;46415;47.536;19.066;2023-04-23T07:17:51;-18646.41;;;15.38;63.07
60583;BME280;46415;47.536;19.066;2023-04-23T07:20:53;-18651.06;;;15.55;61.75
60583;BME280;46415;47.536;19.066;2023-04-23T07:23:57;-18658.41;;;15.82;60.61
60583;BME280;46415;47.536;19.066;2023-04-23T07:27:08;-18660.47;;;15.90;58.75
60583;BME280;46415;47.536;19.066;2023-04-23T07:30:11;-18665.09;;;16.07;57.15
60583;BME280;46415;47.536;19.066;2023-04-23T07:33:14;-18668.50;;;16.20;57.03
60583;BME280;46415;47.536;19.066;2023-04-23T07:36:17;-18674.09;;;16.41;55.93
60583;BME280;46415;47.536;19.066;2023-04-23T07:39:20;-18680.22;;;16.63;56.97
60583;BME280;46415;47.536;19.066;2023-04-23T07:42:23;-18685.81;;;16.84;55.28
60583;BME280;46415;47.536;19.066;2023-04-23T07:45:26;-18685.53;;;16.83;54.16
60583;BME280;46415;47.536;19.066;2023-04-23T07:48:29;-18680.63;;;16.65;52.62
60583;BME280;46415;47.536;19.066;2023-04-23T07:51:32;-18681.31;;;16.67;51.89
60583;BME280;46415;47.536;19.066;2023-04-23T07:54:35;-18691.13;;;17.04;49.40
60583;BME280;46415;47.536;19.066;2023-04-23T07:57:38;-18695.75;;;17.21;48.63
60583;BME280;46415;47.536;19.066;2023-04-23T08:00:42;-18700.50;;;17.39;48.70
60583;BME280;46415;47.536;19.066;2023-04-23T08:03:45;-18701.72;;;17.43;45.97
60583;BME280;46415;47.536;19.066;2023-04-23T08:06:48;-18712.91;;;17.85;46.08
60583;BME280;46415;47.536;19.066;2023-04-23T08:09:51;-18718.59;;;18.06;40.15
60583;BME280;46415;47.536;19.066;2023-04-23T08:12:54;-18726.75;;;18.36;38.92
60583;BME280;46415;47.536;19.066;2023-04-23T08:15:57;-18725.13;;;18.30;37.25
60583;BME280;46415;47.536;19.066;2023-04-23T08:19:01;-18732.75;;;18.59;37.58
60583;BME280;46415;47.536;19.066;2023-04-23T08:22:08;-18741.03;;;18.90;37.21
60583;BME280;46415;47.536;19.066;2023-04-23T08:25:12;-18744.44;;;19.02;37.16
60583;BME280;46415;47.536;19.066;2023-04-23T08:28:16;-18750.41;;;19.25;37.05
60583;BME280;46415;47.536;19.066;2023-04-23T08:31:19;-18753.28;;;19.35;36.18
60583;BME280;46415;47.536;19.066;2023-04-23T08:34:28;-18757.75;;;19.52;35.69
60583;BME280;46415;47.536;19.066;2023-04-23T08:37:31;-18763.06;;;19.72;35.64
60583;BME280;46415;47.536;19.066;2023-04-23T08:40:35;-18765.78;;;19.82;34.25
60583;BME280;46415;47.536;19.066;2023-04-23T08:46:54;-18767.53;;;19.88;32.83
60583;BME280;46415;47.536;19.066;2023-04-23T08:49:58;-18769.97;;;19.97;33.29
60583;BME280;46415;47.536;19.066;2023-04-23T08:53:03;-18775.00;;;20.16;33.98
60583;BME280;46415;47.536;19.066;2023-04-23T08:56:06;-18778.94;;;20.31;33.67
60583;BME280;46415;47.536;19.066;2023-04-23T08:59:10;-18776.50;;;20.22;32.85
60583;BME280;46415;47.536;19.066;2023-04-23T09:02:12;-18777.31;;;20.25;32.66
60583;BME280;46415;47.536;19.066;2023-04-23T09:05:17;-18776.22;;;20.21;33.08
60583;BME280;46415;47.536;19.066;2023-04-23T09:08:20;-18779.75;;;20.34;33.43
60583;BME280;46415;47.536;19.066;2023-04-23T09:11:26;-18781.13;;;20.39;32.54
60583;BME280;46415;47.536;19.066;2023-04-23T09:14:30;-18786.53;;;20.59;32.55
60583;BME280;46415;47.536;19.066;2023-04-23T09:17:33;-18793.06;;;20.84;33.39
60583;BME280;46415;47.536;19.066;2023-04-23T09:20:37;-18792.66;;;20.82;32.63
60583;BME280;46415;47.536;19.066;2023-04-23T09:23:40;-18793.34;;;20.85;32.76
60583;BME280;46415;47.536;19.066;2023-04-23T09:26:48;-18792.66;;;20.82;32.54
60583;BME280;46415;47.536;19.066;2023-04-23T09:29:51;-18799.56;;;21.08;32.42
60583;BME280;46415;47.536;19.066;2023-04-23T09:32:56;-18798.34;;;21.03;32.76
60583;BME280;46415;47.536;19.066;2023-04-23T09:36:09;-18800.38;;;21.11;32.09
60583;BME280;46415;47.536;19.066;2023-04-23T09:39:17;-18806.22;;;21.33;32.19
60583;BME280;46415;47.536;19.066;2023-04-23T09:42:22;-18805.28;;;21.29;32.20
60583;BME280;46415;47.536;19.066;2023-04-23T09:45:25;-18806.34;;;21.33;32.13
60583;BME280;46415;47.536;19.066;2023-04-23T09:48:41;-18814.09;;;21.62;31.45
60583;BME280;46415;47.536;19.066;2023-04-23T09:51:47;-18811.63;;;21.53;30.78
60583;BME280;46415;47.536;19.066;2023-04-23T09:54:50;-18810.81;;;21.50;30.59
60583;BME280;46415;47.536;19.066;2023-04-23T09:57:53;-18815.31;;;21.67;30.19
60583;BME280;46415;47.536;19.066;2023-04-23T10:01:05;-18818.56;;;21.79;30.23
60583;BME280;46415;47.536;19.066;2023-04-23T10:04:11;-18816.94;;;21.73;29.41
60583;BME280;46415;47.536;19.066;2023-04-23T10:07:15;-18817.19;;;21.74;29.29
60583;BME280;46415;47.536;19.066;2023-04-23T10:10:22;-18814.09;;;21.62;29.88
60583;BME280;46415;47.536;19.066;2023-04-23T10:13:25;-18813.41;;;21.59;29.68
60583;BME280;46415;47.536;19.066;2023-04-23T10:16:29;-18815.31;;;21.67;29.04
60583;BME280;46415;47.536;19.066;2023-04-23T10:19:50;-18820.19;;;21.85;28.84
60583;BME280;46415;47.536;19.066;2023-04-23T10:22:54;-18828.03;;;22.14;29.02
60583;BME280;46415;47.536;19.066;2023-04-23T10:25:59;-18828.31;;;22.15;29.32
60583;BME280;46415;47.536;19.066;2023-04-23T10:29:04;-18833.31;;;22.34;28.05
60583;BME280;46415;47.536;19.066;2023-04-23T10:32:10;-18839.16;;;22.56;27.78
60583;BME280;46415;47.536;19.066;2023-04-23T10:35:14;-18834.94;;;22.40;27.82
60583;BME280;46415;47.536;19.066;2023-04-23T10:38:17;-18838.87;;;22.55;27.72
60583;BME280;46415;47.536;19.066;2023-04-23T10:41:21;-18839.28;;;22.56;27.19
60583;BME280;46415;47.536;19.066;2023-04-23T10:44:36;-18832.91;;;22.32;26.50
60583;BME280;46415;47.536;19.066;2023-04-23T10:47:43;-18838.87;;;22.55;25.41
60583;BME280;46415;47.536;19.066;2023-04-23T10:50:56;-18843.06;;;22.70;26.23
60583;BME280;46415;47.536;19.066;2023-04-23T10:54:19;-18844.03;;;22.74;25.80
60583;BME280;46415;47.536;19.066;2023-04-23T10:57:21;-18845.09;;;22.78;25.95
60583;BME280;46415;47.536;19.066;2023-04-23T11:00:26;-18844.84;;;22.77;25.10
60583;BME280;46415;47.536;19.066;2023-04-23T11:03:37;-18851.75;;;23.03;26.04
60583;BME280;46415;47.536;19.066;2023-04-23T11:09:49;-18858.78;;;23.29;25.50
60583;BME280;46415;47.536;19.066;2023-04-23T11:12:54;-18857.56;;;23.25;25.60
60583;BME280;46415;47.536;19.066;2023-04-23T11:16:19;-18855.94;;;23.18;25.31
60583;BME280;46415;47.536;19.066;2023-04-23T11:19:23;-18858.66;;;23.29;25.79
60583;BME280;46415;47.536;19.066;2023-04-23T11:22:33;-18868.53;;;23.66;25.59
60583;BME280;46415;47.536;19.066;2023-04-23T11:25:37;-18862.97;;;23.45;25.97
60583;BME280;46415;47.536;19.066;2023-04-23T11:28:46;-18857.56;;;23.25;25.41
60583;BME280;46415;47.536;19.066;2023-04-23T11:31:52;-18853.22;;;23.08;25.23
60583;BME280;46415;47.536;19.066;2023-04-23T11:35:05;-18861.22;;;23.38;25.61
60583;BME280;46415;47.536;19.066;2023-04-23T11:38:09;-18869.47;;;23.69;25.78
60583;BME280;46415;47.536;19.066;2023-04-23T11:41:12;-18873.00;;;23.82;24.57
60583;BME280;46415;47.536;19.066;2023-04-23T11:44:15;-18873.66;;;23.85;25.03
60583;BME280;46415;47.536;19.066;2023-04-23T11:47:18;-18880.97;;;24.12;23.86
60583;BME280;46415;47.536;19.066;2023-04-23T11:50:26;-18883.53;;;24.22;24.68
60583;BME280;46415;47.536;19.066;2023-04-23T11:53:29;-18886.25;;;24.32;24.01
60583;BME280;46415;47.536;19.066;2023-04-23T11:56:32;-18886.78;;;24.34;24.03
60583;BME280;46415;47.536;19.066;2023-04-23T11:59:36;-18892.06;;;24.54;23.94
60583;BME280;46415;47.536;19.066;2023-04-23T12:02:52;-18892.72;;;24.56;23.95
60583;BME280;46415;47.536;19.066;2023-04-23T12:05:57;-18890.03;;;24.46;23.97
60583;BME280;46415;47.536;19.066;2023-04-23T12:09:00;-18878.53;;;24.03;25.13
60583;BME280;46415;47.536;19.066;2023-04-23T12:12:03;-18861.09;;;23.38;25.68
60583;BME280;46415;47.536;19.066;2023-04-23T12:15:07;-18854.72;;;23.14;25.96
60583;BME280;46415;47.536;19.066;2023-04-23T12:18:10;-18862.84;;;23.44;26.23
60583;BME280;46415;47.536;19.066;2023-04-23T12:21:13;-18871.38;;;23.76;26.32
60583;BME280;46415;47.536;19.066;2023-04-23T12:24:16;-18876.09;;;23.94;25.86
60583;BME280;46415;47.536;19.066;2023-04-23T12:27:20;-18882.19;;;24.17;25.33
60583;BME280;46415;47.536;19.066;2023-04-23T12:30:29;-18891.09;;;24.50;25.44
60583;BME280;46415;47.536;19.066;2023-04-23T12:33:32;-18877.31;;;23.98;25.28
60583;BME280;46415;47.536;19.066;2023-04-23T12:36:36;-18880.56;;;24.11;25.87
60583;BME280;46415;47.536;19.066;2023-04-23T12:39:39;-18882.72;;;24.19;25.83
60583;BME280;46415;47.536;19.066;2023-04-23T12:42:42;-18873.53;;;23.84;25.51
60583;BME280;46415;47.536;19.066;2023-04-23T12:45:45;-18874.06;;;23.86;25.71
60583;BME280;46415;47.536;19.066;2023-04-23T12:48:48;-18881.38;;;24.14;25.20
60583;BME280;46415;47.536;19.066;2023-04-23T12:51:52;-18890.84;;;24.49;25.21
60583;BME280;46415;47.536;19.066;2023-04-23T12:55:01;-18898.69;;;24.78;24.23
60583;BME280;46415;47.536;19.066;2023-04-23T12:58:06;-18889.75;;;24.45;24.93
60583;BME280;46415;47.536;19.066;2023-04-23T13:01:09;-18880.56;;;24.11;25.80
60583;BME280;46415;47.536;19.066;2023-04-23T13:04:14;-18875.41;;;23.91;26.10
60583;BME280;46415;47.536;19.066;2023-04-23T13:07:16;-18877.84;;;24.00;24.27
60583;BME280;46415;47.536;19.066;2023-04-23T13:10:20;-18891.09;;;24.50;24.63
60583;BME280;46415;47.536;19.066;2023-04-23T13:13:23;-18891.09;;;24.50;24.34
60583;BME280;46415;47.536;19.066;2023-04-23T13:16:25;-18895.97;;;24.68;23.74
60583;BME280;46415;47.536;19.066;2023-04-23T13:19:29;-18901.91;;;24.91;23.93
60583;BME280;46415;47.536;19.066;2023-04-23T13:22:32;-18909.75;;;25.20;24.08
60583;BME280;46415;47.536;19.066;2023-04-23T13:25:35;-18911.66;;;25.27;23.79
60583;BME280;46415;47.536;19.066;2023-04-23T13:28:38;-18916.78;;;25.46;23.81
60583;BME280;46415;47.536;19.066;2023-04-23T13:31:42;-18899.63;;;24.82;23.58
60583;BME280;46415;47.536;19.066;2023-04-23T13:34:45;-18903.13;;;24.95;23.46
60583;BME280;46415;47.536;19.066;2023-04-23T13:37:48;-18904.34;;;25.00;23.75
60583;BME280;46415;47.536;19.066;2023-04-23T13:40:51;-18912.19;;;25.29;24.11
60583;BME280;46415;47.536;19.066;2023-04-23T13:43:54;-18916.91;;;25.47;23.12
60583;BME280;46415;47.536;19.066;2023-04-23T13:46:57;-18928.38;;;25.90;22.37
60583;BME280;46415;47.536;19.066;2023-04-23T13:50:03;-18931.50;;;26.01;22.22
60583;BME280;46415;47.536;19.066;2023-04-23T13:53:08;-18926.22;;;25.82;22.84
60583;BME280;46415;47.536;19.066;2023-04-23T13:56:12;-18929.88;;;25.95;22.39
60583;BME280;46415;47.536;19.066;2023-04-23T13:59:15;-18936.06;;;26.19;21.64
60583;BME280;46415;47.536;19.066;2023-04-23T14:02:22;-18943.50;;;26.47;21.45
60583;BME280;46415;47.536;19.066;2023-04-23T14:05:25;-18933.53;;;26.09;21.59
60583;BME280;46415;47.536;19.066;2023-04-23T14:08:28;-18940.41;;;26.35;21.49
60583;BME280;46415;47.536;19.066;2023-04-23T14:11:31;-18942.69;;;26.44;22.23
60583;BME280;46415;47.536;19.066;2023-04-23T14:14:34;-18943.63;;;26.47;21.30
60583;BME280;46415;47.536;19.066;2023-04-23T14:17:37;-18942.81;;;26.44;22.69
60583;BME280;46415;47.536;19.066;2023-04-23T14:20:42;-18940.00;;;26.33;21.80
60583;BME280;46415;47.536;19.066;2023-04-23T14:24:01;-18931.91;;;26.03;22.17
60583;BME280;46415;47.536;19.066;2023-04-23T14:27:09;-18945.38;;;26.54;22.07
60583;BME280;46415;47.536;19.066;2023-04-23T14:30:18;-18951.59;;;26.77;21.98
60583;BME280;46415;47.536;19.066;2023-04-23T14:33:22;-18963.47;;;27.21;21.85
60583;BME280;46415;47.536;19.066;2023-04-23T14:36:25;-18958.06;;;27.01;21.38
60583;BME280;46415;47.536;19.066;2023-04-23T14:39:27;-18971.69;;;27.52;21.83
60583;BME280;46415;47.536;19.066;2023-04-23T14:42:31;-18975.19;;;27.66;20.88
60583;BME280;46415;47.536;19.066;2023-04-23T14:45:33;-18970.88;;;27.49;20.75
60583;BME280;46415;47.536;19.066;2023-04-23T14:48:36;-18971.53;;;27.52;20.66
60583;BME280;46415;47.536;19.066;2023-04-23T14:51:39;-18986.91;;;28.10;20.08
60583;BME280;46415;47.536;19.066;2023-04-23T14:54:44;-19017.56;;;29.25;20.00
60583;BME280;46415;47.536;19.066;2023-04-23T14:57:47;-19029.13;;;29.69;18.89
60583;BME280;46415;47.536;19.066;2023-04-23T15:00:50;-19052.63;;;30.57;18.64
60583;BME280;46415;47.536;19.066;2023-04-23T15:03:54;-19066.06;;;31.08;17.68
60583;BME280;46415;47.536;19.066;2023-04-23T15:06:58;-19094.34;;;32.15;18.19
60583;BME280;46415;47.536;19.066;2023-04-23T15:10:01;-19108.44;;;32.68;16.23
60583;BME280;46415;47.536;19.066;2023-04-23T15:13:16;-19138.94;;;33.83;15.39
60583;BME280;46415;47.536;19.066;2023-04-23T15:16:32;-19146.81;;;34.13;14.80
60583;BME280;46415;47.536;19.066;2023-04-23T15:19:38;-19184.09;;;35.54;14.43
60583;BME280;46415;47.536;19.066;2023-04-23T15:22:42;-19187.56;;;35.68;13.54
60583;BME280;46415;47.536;19.066;2023-04-23T15:25:45;-19205.56;;;36.36;13.23
60583;BME280;46415;47.536;19.066;2023-04-23T15:28:49;-19220.22;;;36.92;13.03
60583;BME280;46415;47.536;19.066;2023-04-23T15:31:52;-19226.06;;;37.14;12.71
60583;BME280;46415;47.536;19.066;2023-04-23T15:34:59;-19193.03;;;35.88;13.46
60583;BME280;46415;47.536;19.066;2023-04-23T15:38:02;-19197.41;;;36.05;13.44
60583;BME280;46415;47.536;19.066;2023-04-23T15:41:05;-19177.53;;;35.30;13.91
60583;BME280;46415;47.536;19.066;2023-04-23T15:44:08;-19201.56;;;36.21;12.99
60583;BME280;46415;47.536;19.066;2023-04-23T15:47:14;-19225.81;;;37.13;12.99
60583;BME280;46415;47.536;19.066;2023-04-23T15:50:17;-19205.97;;;36.37;13.06
60583;BME280;46415;47.536;19.066;2023-04-23T15:53:23;-19209.28;;;36.50;13.38
60583;BME280;46415;47.536;19.066;2023-04-23T15:56:28;-19216.09;;;36.76;13.26
60583;BME280;46415;47.536;19.066;2023-04-23T15:59:31;-19219.16;;;36.88;12.97